X  Close Metar Aviation Weather Data        LYNI Nis Airport
Temperature
27°C Temperature
10°C Dewpoint
34% Humidity



Wind
0 M/S
1 MPH
2 KM/H
1 KTS



-1°
VRB
Current Conditions

Mostly Sunny Mostly Sunny
Pressure 1021 (hPa) - 30.15 (inHg)
Visibility 6 (mile) - 10 (km)
Airport
Airport-code LYNI

Location: Nis Airport
Distance: 63 (km)

Metar:
METAR LYNI 141330Z VRB01KT CAVOK 27/10 Q1022 NOSIG

Time: 14-04-2024 15:30 CEST